sensor_id;sensor_type;location;lat;lon;timestamp;pressure;altitude;pressure_sealevel;temperature;humidity
39891;BME280;25564;53.312;9.790;2023-02-15T00:01:44;102318.09;;;2.90;98.20
39891;BME280;25564;53.312;9.790;2023-02-15T00:04:18;102312.25;;;2.97;98.25
39891;BME280;25564;53.312;9.790;2023-02-15T00:06:50;102305.13;;;2.93;98.35
39891;BME280;25564;53.312;9.790;2023-02-15T00:09:21;102310.94;;;3.08;98.60
39891;BME280;25564;53.312;9.790;2023-02-15T00:11:53;102302.00;;;3.03;98.96
39891;BME280;25564;53.312;9.790;2023-02-15T00:14:24;102320.97;;;3.20;98.84
39891;BME280;25564;53.312;9.790;2023-02-15T00:16:55;102309.66;;;3.21;99.20
39891;BME280;25564;53.312;9.790;2023-02-15T00:19:31;102309.94;;;3.28;99.19
39891;BME280;25564;53.312;9.790;2023-02-15T00:22:02;102312.69;;;3.32;98.73
39891;BME280;25564;53.312;9.790;2023-02-15T00:24:33;102306.59;;;3.33;98.69
39891;BME280;25564;53.312;9.790;2023-02-15T00:27:05;102297.06;;;3.35;99.49
39891;BME280;25564;53.312;9.790;2023-02-15T00:29:36;102302.53;;;3.41;98.49
39891;BME280;25564;53.312;9.790;2023-02-15T00:32:07;102288.34;;;3.36;99.19
39891;BME280;25564;53.312;9.790;2023-02-15T00:34:39;102301.88;;;3.46;98.90
39891;BME280;25564;53.312;9.790;2023-02-15T00:37:10;102291.19;;;3.42;99.41
39891;BME280;25564;53.312;9.790;2023-02-15T00:39:41;102273.63;;;3.39;98.75
39891;BME280;25564;53.312;9.790;2023-02-15T00:42:13;102293.28;;;3.50;98.40
39891;BME280;25564;53.312;9.790;2023-02-15T00:44:44;102271.94;;;3.41;98.97
39891;BME280;25564;53.312;9.790;2023-02-15T00:47:15;102283.72;;;3.52;99.20
39891;BME280;25564;53.312;9.790;2023-02-15T00:49:47;102276.69;;;3.51;98.79
39891;BME280;25564;53.312;9.790;2023-02-15T00:52:18;102270.44;;;3.48;98.84
39891;BME280;25564;53.312;9.790;2023-02-15T00:54:50;102262.94;;;3.35;99.05
39891;BME280;25564;53.312;9.790;2023-02-15T00:57:21;102277.97;;;3.39;98.44
39891;BME280;25564;53.312;9.790;2023-02-15T00:59:52;102229.66;;;3.08;98.00
39891;BME280;25564;53.312;9.790;2023-02-15T01:02:23;102275.00;;;3.29;98.95
39891;BME280;25564;53.312;9.790;2023-02-15T01:04:55;102256.91;;;3.13;98.51
39891;BME280;25564;53.312;9.790;2023-02-15T01:07:26;102267.19;;;3.07;98.73
39891;BME280;25564;53.312;9.790;2023-02-15T01:09:57;102272.09;;;2.98;98.55
39891;BME280;25564;53.312;9.790;2023-02-15T01:12:28;102236.00;;;2.69;98.23
39891;BME280;25564;53.312;9.790;2023-02-15T01:15:00;102256.84;;;2.66;98.00
39891;BME280;25564;53.312;9.790;2023-02-15T01:17:32;102272.25;;;2.58;98.16
39891;BME280;25564;53.312;9.790;2023-02-15T01:20:04;102266.59;;;2.47;97.52
39891;BME280;25564;53.312;9.790;2023-02-15T01:22:35;102267.88;;;2.36;97.09
39891;BME280;25564;53.312;9.790;2023-02-15T01:25:07;102270.84;;;2.23;97.56
39891;BME280;25564;53.312;9.790;2023-02-15T01:27:38;102263.69;;;2.19;97.52
39891;BME280;25564;53.312;9.790;2023-02-15T01:30:10;102245.81;;;2.09;97.13
39891;BME280;25564;53.312;9.790;2023-02-15T01:32:43;102253.09;;;2.16;97.64
39891;BME280;25564;53.312;9.790;2023-02-15T01:35:14;102257.50;;;2.17;97.53
39891;BME280;25564;53.312;9.790;2023-02-15T01:37:45;102246.31;;;2.21;97.97
39891;BME280;25564;53.312;9.790;2023-02-15T01:40:18;102251.97;;;2.32;97.70
39891;BME280;25564;53.312;9.790;2023-02-15T01:42:51;102248.84;;;2.40;97.92
39891;BME280;25564;53.312;9.790;2023-02-15T01:45:28;102256.13;;;2.47;97.64
39891;BME280;25564;53.312;9.790;2023-02-15T01:50:42;102257.63;;;2.63;98.14
39891;BME280;25564;53.312;9.790;2023-02-15T01:53:31;102246.47;;;2.69;98.90
39891;BME280;25564;53.312;9.790;2023-02-15T01:56:12;102246.59;;;2.72;98.66
39891;BME280;25564;53.312;9.790;2023-02-15T01:58:45;102245.88;;;2.76;98.10
39891;BME280;25564;53.312;9.790;2023-02-15T02:01:19;102234.56;;;2.77;98.45
39891;BME280;25564;53.312;9.790;2023-02-15T02:06:37;102219.44;;;2.70;98.32
39891;BME280;25564;53.312;9.790;2023-02-15T02:09:09;102224.69;;;2.70;98.32
39891;BME280;25564;53.312;9.790;2023-02-15T02:11:42;102224.63;;;2.68;98.45
39891;BME280;25564;53.312;9.790;2023-02-15T02:14:17;102214.09;;;2.67;98.57
39891;BME280;25564;53.312;9.790;2023-02-15T02:17:02;102189.31;;;2.58;98.61
39891;BME280;25564;53.312;9.790;2023-02-15T02:19:59;102204.56;;;2.69;98.83
39891;BME280;25564;53.312;9.790;2023-02-15T02:22:57;102184.06;;;2.58;98.70
39891;BME280;25564;53.312;9.790;2023-02-15T02:25:51;102183.13;;;2.56;98.63
39891;BME280;25564;53.312;9.790;2023-02-15T02:37:22;102175.38;;;2.37;98.67
39891;BME280;25564;53.312;9.790;2023-02-15T02:43:19;102182.03;;;2.29;98.67
39891;BME280;25564;53.312;9.790;2023-02-15T02:45:57;102169.09;;;2.11;98.21
39891;BME280;25564;53.312;9.790;2023-02-15T02:48:32;102177.72;;;2.09;98.22
39891;BME280;25564;53.312;9.790;2023-02-15T02:51:04;102159.53;;;1.89;97.22
39891;BME280;25564;53.312;9.790;2023-02-15T02:53:35;102182.19;;;1.89;97.74
39891;BME280;25564;53.312;9.790;2023-02-15T02:56:20;102164.75;;;1.69;97.51
39891;BME280;25564;53.312;9.790;2023-02-15T02:59:09;102179.56;;;1.68;97.20
39891;BME280;25564;53.312;9.790;2023-02-15T03:01:54;102151.81;;;1.51;97.21
39891;BME280;25564;53.312;9.790;2023-02-15T03:04:31;102172.16;;;1.58;96.85
39891;BME280;25564;53.312;9.790;2023-02-15T03:07:10;102148.94;;;1.45;96.80
39891;BME280;25564;53.312;9.790;2023-02-15T03:09:45;102145.22;;;1.40;97.33
39891;BME280;25564;53.312;9.790;2023-02-15T03:12:20;102165.50;;;1.45;97.26
39891;BME280;25564;53.312;9.790;2023-02-15T03:14:56;102163.41;;;1.37;96.91
39891;BME280;25564;53.312;9.790;2023-02-15T03:17:33;102167.47;;;1.30;96.79
39891;BME280;25564;53.312;9.790;2023-02-15T03:20:30;102163.63;;;1.22;96.93
39891;BME280;25564;53.312;9.790;2023-02-15T03:23:06;102159.84;;;1.15;96.55
39891;BME280;25564;53.312;9.790;2023-02-15T03:25:44;102143.53;;;1.00;97.03
39891;BME280;25564;53.312;9.790;2023-02-15T03:28:24;102159.84;;;1.15;97.35
39891;BME280;25564;53.312;9.790;2023-02-15T03:30:58;102156.41;;;1.16;97.45
39891;BME280;25564;53.312;9.790;2023-02-15T03:33:32;102152.22;;;1.20;97.18
39891;BME280;25564;53.312;9.790;2023-02-15T03:36:18;102152.34;;;1.23;97.61
39891;BME280;25564;53.312;9.790;2023-02-15T03:39:18;102154.34;;;1.28;97.67
39891;BME280;25564;53.312;9.790;2023-02-15T03:41:59;102144.00;;;1.31;97.43
39891;BME280;25564;53.312;9.790;2023-02-15T03:44:39;102135.47;;;1.36;97.76
39891;BME280;25564;53.312;9.790;2023-02-15T03:47:23;102140.31;;;1.47;97.73
39891;BME280;25564;53.312;9.790;2023-02-15T03:50:25;102083.47;;;1.22;98.09
39891;BME280;25564;53.312;9.790;2023-02-15T03:53:18;102130.38;;;1.59;97.95
39891;BME280;25564;53.312;9.790;2023-02-15T03:55:55;102130.31;;;1.58;97.92
39891;BME280;25564;53.312;9.790;2023-02-15T03:58:26;102120.41;;;1.51;98.22
39891;BME280;25564;53.312;9.790;2023-02-15T04:01:27;102125.19;;;1.61;97.62
39891;BME280;25564;53.312;9.790;2023-02-15T04:04:32;102126.91;;;1.60;98.02
39891;BME280;25564;53.312;9.790;2023-02-15T04:07:07;102124.94;;;1.55;97.88
39891;BME280;25564;53.312;9.790;2023-02-15T04:09:38;102136.09;;;1.51;97.99
39891;BME280;25564;53.312;9.790;2023-02-15T04:12:28;102133.22;;;1.45;97.98
39891;BME280;25564;53.312;9.790;2023-02-15T04:14:59;102119.78;;;1.36;98.04
39891;BME280;25564;53.312;9.790;2023-02-15T04:17:49;102118.69;;;1.30;98.11
39891;BME280;25564;53.312;9.790;2023-02-15T04:20:21;102113.19;;;1.24;98.01
39891;BME280;25564;53.312;9.790;2023-02-15T04:23:11;102057.50;;;0.85;98.10
39891;BME280;25564;53.312;9.790;2023-02-15T04:26:03;102097.38;;;1.01;97.89
39891;BME280;25564;53.312;9.790;2023-02-15T04:28:35;102121.97;;;1.06;98.07
39891;BME280;25564;53.312;9.790;2023-02-15T04:31:07;102113.00;;;0.99;97.43
39891;BME280;25564;53.312;9.790;2023-02-15T04:33:38;102129.81;;;1.06;97.41
39891;BME280;25564;53.312;9.790;2023-02-15T04:36:09;102126.13;;;1.01;97.85
39891;BME280;25564;53.312;9.790;2023-02-15T04:38:41;102129.50;;;0.98;97.87
39891;BME280;25564;53.312;9.790;2023-02-15T04:41:12;102123.31;;;0.96;97.82
39891;BME280;25564;53.312;9.790;2023-02-15T04:43:44;102124.00;;;0.92;97.53
39891;BME280;25564;53.312;9.790;2023-02-15T04:46:15;102117.81;;;0.90;97.21
39891;BME280;25564;53.312;9.790;2023-02-15T04:48:46;102109.63;;;0.82;96.92
39891;BME280;25564;53.312;9.790;2023-02-15T04:51:18;102104.34;;;0.81;97.50
39891;BME280;25564;53.312;9.790;2023-02-15T04:53:49;102106.88;;;0.79;97.33
39891;BME280;25564;53.312;9.790;2023-02-15T04:56:23;102083.66;;;0.66;96.78
39891;BME280;25564;53.312;9.790;2023-02-15T04:58:54;102105.72;;;0.73;97.27
39891;BME280;25564;53.312;9.790;2023-02-15T05:01:26;102097.75;;;0.70;96.98
39891;BME280;25564;53.312;9.790;2023-02-15T05:03:57;102080.84;;;0.61;97.28
39891;BME280;25564;53.312;9.790;2023-02-15T05:06:29;102095.28;;;0.73;97.22
39891;BME280;25564;53.312;9.790;2023-02-15T05:09:01;102089.22;;;0.74;97.41
39891;BME280;25564;53.312;9.790;2023-02-15T05:11:32;102069.28;;;0.56;97.50
39891;BME280;25564;53.312;9.790;2023-02-15T05:14:04;102094.31;;;0.71;97.25
39891;BME280;25564;53.312;9.790;2023-02-15T05:16:35;102091.56;;;0.68;97.12
39891;BME280;25564;53.312;9.790;2023-02-15T05:19:07;102083.59;;;0.64;97.13
39891;BME280;25564;53.312;9.790;2023-02-15T05:21:38;102047.50;;;0.37;96.92
39891;BME280;25564;53.312;9.790;2023-02-15T05:24:09;102094.38;;;0.53;97.62
39891;BME280;25564;53.312;9.790;2023-02-15T05:26:59;102089.84;;;0.49;97.12
39891;BME280;25564;53.312;9.790;2023-02-15T05:29:49;102087.91;;;0.45;97.56
39891;BME280;25564;53.312;9.790;2023-02-15T05:32:20;102069.69;;;0.27;97.39
39891;BME280;25564;53.312;9.790;2023-02-15T05:34:52;102076.03;;;0.32;97.05
39891;BME280;25564;53.312;9.790;2023-02-15T05:37:23;102081.66;;;0.41;96.85
39891;BME280;25564;53.312;9.790;2023-02-15T05:39:55;102047.84;;;0.25;97.53
39891;BME280;25564;53.312;9.790;2023-02-15T05:42:26;102071.28;;;0.43;96.74
39891;BME280;25564;53.312;9.790;2023-02-15T05:44:57;102057.06;;;0.36;97.55
39891;BME280;25564;53.312;9.790;2023-02-15T05:47:29;102067.72;;;0.41;97.55
39891;BME280;25564;53.312;9.790;2023-02-15T05:50:00;102067.66;;;0.39;97.25
39891;BME280;25564;53.312;9.790;2023-02-15T05:52:32;102041.06;;;0.28;97.57
39891;BME280;25564;53.312;9.790;2023-02-15T05:55:04;102054.53;;;0.38;96.91
39891;BME280;25564;53.312;9.790;2023-02-15T05:57:35;102053.63;;;0.37;97.34
39891;BME280;25564;53.312;9.790;2023-02-15T06:00:07;102042.22;;;0.35;97.05
39891;BME280;25564;53.312;9.790;2023-02-15T06:02:40;102043.03;;;0.34;96.72
39891;BME280;25564;53.312;9.790;2023-02-15T06:05:12;102010.13;;;0.18;96.82
39891;BME280;25564;53.312;9.790;2023-02-15T06:07:44;102032.19;;;0.25;97.08
39891;BME280;25564;53.312;9.790;2023-02-15T06:10:15;102031.09;;;0.20;96.72
39891;BME280;25564;53.312;9.790;2023-02-15T06:12:47;102049.63;;;0.26;96.43
39891;BME280;25564;53.312;9.790;2023-02-15T06:15:18;102048.59;;;0.22;97.20
39891;BME280;25564;53.312;9.790;2023-02-15T06:17:49;102053.47;;;0.15;96.32
39891;BME280;25564;53.312;9.790;2023-02-15T06:20:21;102040.97;;;0.08;97.16
39891;BME280;25564;53.312;9.790;2023-02-15T06:22:53;102045.91;;;0.02;96.98
39891;BME280;25564;53.312;9.790;2023-02-15T06:25:26;102054.38;;;-0.04;96.16
39891;BME280;25564;53.312;9.790;2023-02-15T06:27:58;102046.78;;;-0.17;95.97
39891;BME280;25564;53.312;9.790;2023-02-15T06:30:30;102052.00;;;-0.17;96.18
39891;BME280;25564;53.312;9.790;2023-02-15T06:33:01;102033.91;;;-0.32;96.13
39891;BME280;25564;53.312;9.790;2023-02-15T06:35:33;102063.34;;;-0.17;96.60
39891;BME280;25564;53.312;9.790;2023-02-15T06:38:05;102052.69;;;-0.21;96.29
39891;BME280;25564;53.312;9.790;2023-02-15T06:40:37;102051.78;;;-0.22;96.12
39891;BME280;25564;53.312;9.790;2023-02-15T06:43:08;102057.69;;;-0.26;96.44
39891;BME280;25564;53.312;9.790;2023-02-15T06:45:41;102063.72;;;-0.27;96.46
39891;BME280;25564;53.312;9.790;2023-02-15T06:48:13;102071.63;;;-0.25;96.95
39891;BME280;25564;53.312;9.790;2023-02-15T06:50:45;102069.91;;;-0.25;96.03
39891;BME280;25564;53.312;9.790;2023-02-15T06:53:19;102064.69;;;-0.25;96.46
39891;BME280;25564;53.312;9.790;2023-02-15T06:55:50;102057.81;;;-0.23;96.81
39891;BME280;25564;53.312;9.790;2023-02-15T06:58:21;102041.00;;;-0.29;96.71
39891;BME280;25564;53.312;9.790;2023-02-15T07:00:53;102040.31;;;-0.25;96.87
39891;BME280;25564;53.312;9.790;2023-02-15T07:03:24;102037.63;;;-0.27;95.95
39891;BME280;25564;53.312;9.790;2023-02-15T07:05:57;102050.66;;;-0.09;96.18
39891;BME280;25564;53.312;9.790;2023-02-15T07:08:29;102032.78;;;-0.19;96.14
39891;BME280;25564;53.312;9.790;2023-02-15T07:11:00;102051.53;;;-0.09;96.33
39891;BME280;25564;53.312;9.790;2023-02-15T07:13:51;102055.13;;;-0.07;96.85
39891;BME280;25564;53.312;9.790;2023-02-15T07:16:23;102067.88;;;0.07;96.72
39891;BME280;25564;53.312;9.790;2023-02-15T07:18:55;102039.94;;;0.04;97.03
39891;BME280;25564;53.312;9.790;2023-02-15T07:21:26;102071.41;;;0.26;96.64
39891;BME280;25564;53.312;9.790;2023-02-15T07:23:58;102063.25;;;0.38;97.49
39891;BME280;25564;53.312;9.790;2023-02-15T07:26:31;102050.59;;;0.47;97.14
39891;BME280;25564;53.312;9.790;2023-02-15T07:29:03;102056.22;;;0.56;97.12
39891;BME280;25564;53.312;9.790;2023-02-15T07:31:34;102049.63;;;0.64;97.05
39891;BME280;25564;53.312;9.790;2023-02-15T07:34:06;102039.06;;;0.61;96.90
39891;BME280;25564;53.312;9.790;2023-02-15T07:36:38;102036.28;;;0.78;96.95
39891;BME280;25564;53.312;9.790;2023-02-15T07:39:10;101980.44;;;0.55;96.99
39891;BME280;25564;53.312;9.790;2023-02-15T07:41:41;102043.81;;;0.91;97.32
39891;BME280;25564;53.312;9.790;2023-02-15T07:44:14;102028.41;;;0.97;97.13
39891;BME280;25564;53.312;9.790;2023-02-15T07:46:45;102033.88;;;1.03;96.94
39891;BME280;25564;53.312;9.790;2023-02-15T07:49:17;102023.66;;;1.09;97.57
39891;BME280;25564;53.312;9.790;2023-02-15T07:51:48;102022.25;;;1.17;96.76
39891;BME280;25564;53.312;9.790;2023-02-15T07:54:19;102020.09;;;1.28;97.34
39891;BME280;25564;53.312;9.790;2023-02-15T07:56:51;101998.28;;;1.27;97.32
39891;BME280;25564;53.312;9.790;2023-02-15T07:59:22;102002.59;;;1.48;97.42
39891;BME280;25564;53.312;9.790;2023-02-15T08:01:53;102002.94;;;1.57;97.98
39891;BME280;25564;53.312;9.790;2023-02-15T08:04:27;102001.66;;;1.68;97.75
39891;BME280;25564;53.312;9.790;2023-02-15T08:06:58;102006.34;;;1.77;97.45
39891;BME280;25564;53.312;9.790;2023-02-15T08:09:29;102004.84;;;1.83;97.39
39891;BME280;25564;53.312;9.790;2023-02-15T08:12:01;102001.69;;;1.92;97.56
39891;BME280;25564;53.312;9.790;2023-02-15T08:14:33;101988.56;;;1.90;97.52
39891;BME280;25564;53.312;9.790;2023-02-15T08:17:04;101991.41;;;1.96;97.41
39891;BME280;25564;53.312;9.790;2023-02-15T08:19:36;102008.59;;;2.14;97.25
39891;BME280;25564;53.312;9.790;2023-02-15T08:22:11;101988.13;;;2.02;97.42
39891;BME280;25564;53.312;9.790;2023-02-15T08:24:43;102015.75;;;2.18;97.60
39891;BME280;25564;53.312;9.790;2023-02-15T08:27:14;102004.50;;;2.20;97.64
39891;BME280;25564;53.312;9.790;2023-02-15T08:29:46;102007.38;;;2.28;97.71
39891;BME280;25564;53.312;9.790;2023-02-15T08:32:17;101994.41;;;2.31;97.33
39891;BME280;25564;53.312;9.790;2023-02-15T08:34:48;101990.84;;;2.29;97.54
39891;BME280;25564;53.312;9.790;2023-02-15T08:37:20;102007.22;;;2.47;97.82
39891;BME280;25564;53.312;9.790;2023-02-15T08:39:51;101998.13;;;2.61;98.11
39891;BME280;25564;53.312;9.790;2023-02-15T08:42:22;102001.28;;;2.77;97.59
39891;BME280;25564;53.312;9.790;2023-02-15T08:44:54;101992.16;;;2.91;97.65
39891;BME280;25564;53.312;9.790;2023-02-15T08:47:25;101992.47;;;3.00;98.13
39891;BME280;25564;53.312;9.790;2023-02-15T08:49:56;101984.81;;;3.06;97.82
39891;BME280;25564;53.312;9.790;2023-02-15T08:52:28;101992.13;;;3.16;98.12
39891;BME280;25564;53.312;9.790;2023-02-15T08:54:59;101991.56;;;3.26;98.32
39891;BME280;25564;53.312;9.790;2023-02-15T08:57:30;101984.94;;;3.38;98.09
39891;BME280;25564;53.312;9.790;2023-02-15T09:00:02;101971.19;;;3.45;98.40
39891;BME280;25564;53.312;9.790;2023-02-15T09:02:35;101982.34;;;3.66;97.82
39891;BME280;25564;53.312;9.790;2023-02-15T09:05:08;101981.06;;;3.82;98.59
39891;BME280;25564;53.312;9.790;2023-02-15T09:07:40;101985.19;;;4.02;97.58
39891;BME280;25564;53.312;9.790;2023-02-15T09:10:11;101990.09;;;4.21;98.69
39891;BME280;25564;53.312;9.790;2023-02-15T09:12:42;101979.22;;;4.39;98.08
39891;BME280;25564;53.312;9.790;2023-02-15T09:15:14;101969.03;;;4.51;98.25
39891;BME280;25564;53.312;9.790;2023-02-15T09:17:45;101983.53;;;4.69;98.05
39891;BME280;25564;53.312;9.790;2023-02-15T09:20:16;101987.41;;;4.83;99.28
39891;BME280;25564;53.312;9.790;2023-02-15T09:22:48;101977.88;;;4.86;98.95
39891;BME280;25564;53.312;9.790;2023-02-15T09:25:20;101971.03;;;4.93;98.53
39891;BME280;25564;53.312;9.790;2023-02-15T09:27:51;101965.78;;;4.93;98.65
39891;BME280;25564;53.312;9.790;2023-02-15T09:30:23;101974.31;;;5.20;98.73
39891;BME280;25564;53.312;9.790;2023-02-15T09:32:55;101965.88;;;5.34;99.18
39891;BME280;25564;53.312;9.790;2023-02-15T09:35:26;101963.66;;;5.52;99.00
39891;BME280;25564;53.312;9.790;2023-02-15T09:37:57;101982.66;;;5.76;98.78
39891;BME280;25564;53.312;9.790;2023-02-15T09:40:34;101974.97;;;5.85;98.32
39891;BME280;25564;53.312;9.790;2023-02-15T09:43:27;101975.41;;;6.05;98.77
39891;BME280;25564;53.312;9.790;2023-02-15T09:46:09;101976.69;;;6.26;98.67
39891;BME280;25564;53.312;9.790;2023-02-15T09:48:51;101969.78;;;6.32;98.44
39891;BME280;25564;53.312;9.790;2023-02-15T09:51:42;101973.50;;;6.42;98.43
39891;BME280;25564;53.312;9.790;2023-02-15T09:57:02;101959.03;;;6.67;98.25
39891;BME280;25564;53.312;9.790;2023-02-15T10:02:54;101970.88;;;6.90;98.24
39891;BME280;25564;53.312;9.790;2023-02-15T10:05:44;101973.56;;;6.92;98.44
39891;BME280;25564;53.312;9.790;2023-02-15T10:08:38;101968.41;;;6.99;98.46
39891;BME280;25564;53.312;9.790;2023-02-15T10:11:15;101975.66;;;7.11;98.77
39891;BME280;25564;53.312;9.790;2023-02-15T10:17:22;101959.94;;;7.18;98.10
39891;BME280;25564;53.312;9.790;2023-02-15T10:20:13;101962.72;;;7.28;98.37
39891;BME280;25564;53.312;9.790;2023-02-15T10:26:17;101962.97;;;7.46;98.24
39891;BME280;25564;53.312;9.790;2023-02-15T10:28:53;101966.53;;;7.48;98.30
39891;BME280;25564;53.312;9.790;2023-02-15T10:34:39;101967.91;;;7.82;98.17
39891;BME280;25564;53.312;9.790;2023-02-15T10:37:33;101967.22;;;7.97;98.16
39891;BME280;25564;53.312;9.790;2023-02-15T10:54:42;101957.50;;;8.70;98.16
39891;BME280;25564;53.312;9.790;2023-02-15T11:00:15;101942.75;;;8.95;97.64
39891;BME280;25564;53.312;9.790;2023-02-15T11:05:45;101943.88;;;9.23;96.98
39891;BME280;25564;53.312;9.790;2023-02-15T11:08:20;101943.91;;;9.29;97.70
39891;BME280;25564;53.312;9.790;2023-02-15T11:10:58;101933.22;;;9.16;97.45
39891;BME280;25564;53.312;9.790;2023-02-15T11:13:37;101941.25;;;9.26;97.25
39891;BME280;25564;53.312;9.790;2023-02-15T11:16:21;101922.75;;;9.32;97.28
39891;BME280;25564;53.312;9.790;2023-02-15T11:19:01;101944.06;;;9.53;97.21
39891;BME280;25564;53.312;9.790;2023-02-15T11:21:48;101936.19;;;9.65;96.53
39891;BME280;25564;53.312;9.790;2023-02-15T11:24:21;101939.75;;;9.72;96.88
39891;BME280;25564;53.312;9.790;2023-02-15T11:27:03;101934.50;;;9.79;96.58
39891;BME280;25564;53.312;9.790;2023-02-15T11:29:57;101930.06;;;9.80;96.14
39891;BME280;25564;53.312;9.790;2023-02-15T11:32:58;101923.94;;;9.93;96.00
39891;BME280;25564;53.312;9.790;2023-02-15T11:35:47;101910.72;;;10.01;96.56
39891;BME280;25564;53.312;9.790;2023-02-15T11:38:22;101907.25;;;10.14;95.99
39891;BME280;25564;53.312;9.790;2023-02-15T11:40:59;101912.59;;;10.23;95.86
39891;BME280;25564;53.312;9.790;2023-02-15T11:43:46;101904.66;;;10.31;95.94
39891;BME280;25564;53.312;9.790;2023-02-15T11:46:19;101921.50;;;10.54;95.85
39891;BME280;25564;53.312;9.790;2023-02-15T11:48:52;101914.41;;;10.50;95.11
39891;BME280;25564;53.312;9.790;2023-02-15T11:51:24;101907.31;;;10.41;95.58
39891;BME280;25564;53.312;9.790;2023-02-15T11:53:58;101902.91;;;10.43;95.51
39891;BME280;25564;53.312;9.790;2023-02-15T11:56:31;101887.88;;;10.48;95.27
39891;BME280;25564;53.312;9.790;2023-02-15T11:59:20;101891.41;;;10.57;95.03
39891;BME280;25564;53.312;9.790;2023-02-15T12:01:52;101885.25;;;10.62;95.09
39891;BME280;25564;53.312;9.790;2023-02-15T12:04:27;101869.31;;;10.68;94.81
39891;BME280;25564;53.312;9.790;2023-02-15T12:07:13;101868.44;;;10.83;94.51
39891;BME280;25564;53.312;9.790;2023-02-15T12:09:51;101863.13;;;10.92;94.30
39891;BME280;25564;53.312;9.790;2023-02-15T12:12:29;101853.38;;;10.97;94.05
39891;BME280;25564;53.312;9.790;2023-02-15T12:15:06;101862.22;;;11.08;93.61
39891;BME280;25564;53.312;9.790;2023-02-15T12:17:52;101858.66;;;11.17;93.28
39891;BME280;25564;53.312;9.790;2023-02-15T12:20:32;101854.22;;;11.24;93.07
39891;BME280;25564;53.312;9.790;2023-02-15T12:23:08;101855.97;;;11.34;93.02
39891;BME280;25564;53.312;9.790;2023-02-15T12:25:51;101852.41;;;11.42;92.65
39891;BME280;25564;53.312;9.790;2023-02-15T12:28:26;101852.38;;;11.47;92.65
39891;BME280;25564;53.312;9.790;2023-02-15T12:31:03;101830.28;;;11.39;92.33
39891;BME280;25564;53.312;9.790;2023-02-15T12:33:42;101842.59;;;11.54;92.53
39891;BME280;25564;53.312;9.790;2023-02-15T12:36:25;101817.78;;;11.50;92.29
39891;BME280;25564;53.312;9.790;2023-02-15T12:41:37;101831.91;;;11.69;91.79
39891;BME280;25564;53.312;9.790;2023-02-15T12:44:18;101823.03;;;11.68;91.73
39891;BME280;25564;53.312;9.790;2023-02-15T12:47:27;101832.78;;;11.71;91.40
39891;BME280;25564;53.312;9.790;2023-02-15T12:50:24;101820.34;;;11.84;91.77
39891;BME280;25564;53.312;9.790;2023-02-15T12:53:18;101827.38;;;11.97;91.73
39891;BME280;25564;53.312;9.790;2023-02-15T12:56:03;101805.28;;;11.84;91.29
39891;BME280;25564;53.312;9.790;2023-02-15T12:58:39;101816.69;;;12.06;91.46
39891;BME280;25564;53.312;9.790;2023-02-15T13:01:16;101811.25;;;12.21;91.06
39891;BME280;25564;53.312;9.790;2023-02-15T13:04:21;101804.94;;;12.36;90.54
39891;BME280;25564;53.312;9.790;2023-02-15T13:06:56;101814.66;;;12.43;90.68
39891;BME280;25564;53.312;9.790;2023-02-15T13:12:15;101768.59;;;12.30;89.85
39891;BME280;25564;53.312;9.790;2023-02-15T13:14:51;101803.97;;;12.48;89.90
39891;BME280;25564;53.312;9.790;2023-02-15T13:17:26;101809.34;;;12.41;89.75
39891;BME280;25564;53.312;9.790;2023-02-15T13:20:21;101788.06;;;12.38;89.38
39891;BME280;25564;53.312;9.790;2023-02-15T13:23:08;101803.81;;;12.61;89.16
39891;BME280;25564;53.312;9.790;2023-02-15T13:25:45;101800.19;;;12.71;89.31
39891;BME280;25564;53.312;9.790;2023-02-15T13:28:25;101805.47;;;12.77;88.86
39891;BME280;25564;53.312;9.790;2023-02-15T13:30:58;101805.44;;;12.79;88.21
39891;BME280;25564;53.312;9.790;2023-02-15T13:33:33;101797.47;;;12.77;88.20
39891;BME280;25564;53.312;9.790;2023-02-15T13:36:14;101791.28;;;12.74;88.02
39891;BME280;25564;53.312;9.790;2023-02-15T13:39:16;101804.50;;;12.85;87.63
39891;BME280;25564;53.312;9.790;2023-02-15T13:42:02;101800.09;;;12.82;87.38
39891;BME280;25564;53.312;9.790;2023-02-15T13:50:52;101779.84;;;12.61;87.46
39891;BME280;25564;53.312;9.790;2023-02-15T13:56:56;101780.63;;;12.74;86.89
39891;BME280;25564;53.312;9.790;2023-02-15T13:59:46;101778.00;;;12.71;86.74
39891;BME280;25564;53.312;9.790;2023-02-15T14:05:20;101771.66;;;12.84;86.48
39891;BME280;25564;53.312;9.790;2023-02-15T14:08:11;101767.91;;;13.03;85.93
39891;BME280;25564;53.312;9.790;2023-02-15T14:16:26;101756.81;;;13.43;84.80
39891;BME280;25564;53.312;9.790;2023-02-15T14:19:23;101729.38;;;13.33;85.06
39891;BME280;25564;53.312;9.790;2023-02-15T14:22:11;101754.03;;;13.51;85.27
39891;BME280;25564;53.312;9.790;2023-02-15T14:25:02;101752.34;;;13.44;84.95
39891;BME280;25564;53.312;9.790;2023-02-15T14:27:56;101757.81;;;13.34;84.71
39891;BME280;25564;53.312;9.790;2023-02-15T14:30:33;101759.66;;;13.28;84.89
39891;BME280;25564;53.312;9.790;2023-02-15T14:33:29;101751.78;;;13.16;84.76
39891;BME280;25564;53.312;9.790;2023-02-15T14:36:07;101757.34;;;12.94;85.04
39891;BME280;25564;53.312;9.790;2023-02-15T14:39:04;101754.81;;;12.81;84.87
39891;BME280;25564;53.312;9.790;2023-02-15T14:42:04;101732.81;;;12.62;85.35
39891;BME280;25564;53.312;9.790;2023-02-15T14:45:24;101747.81;;;12.70;84.94
39891;BME280;25564;53.312;9.790;2023-02-15T14:48:20;101748.72;;;12.68;85.29
39891;BME280;25564;53.312;9.790;2023-02-15T14:50:52;101752.31;;;12.64;85.47
39891;BME280;25564;53.312;9.790;2023-02-15T15:01:28;101723.38;;;12.27;84.26
39891;BME280;25564;53.312;9.790;2023-02-15T15:07:25;101718.19;;;12.12;84.78
39891;BME280;25564;53.312;9.790;2023-02-15T15:10:17;101743.00;;;12.14;84.78
39891;BME280;25564;53.312;9.790;2023-02-15T15:12:54;101749.28;;;12.07;85.11
39891;BME280;25564;53.312;9.790;2023-02-15T15:18:07;101746.66;;;11.98;84.93
39891;BME280;25564;53.312;9.790;2023-02-15T15:20:45;101749.38;;;11.93;84.59